createdAt,value
2016-10-19T00:00:28.655Z,0
2016-10-19T00:01:28.926Z,0
2016-10-19T00:02:28.268Z,0
2016-10-19T00:03:28.315Z,0
2016-10-19T00:04:28.240Z,0
2016-10-19T00:05:28.235Z,0
2016-10-19T00:06:28.841Z,0
2016-10-19T00:07:28.188Z,0
2016-10-19T00:08:28.178Z,0
2016-10-19T00:09:28.163Z,0
2016-10-19T00:10:28.148Z,0
2016-10-19T00:11:28.511Z,0
2016-10-19T00:12:28.434Z,0
2016-10-19T00:13:28.414Z,0
2016-10-19T00:14:28.410Z,0
2016-10-19T00:15:28.065Z,0
2016-10-19T00:16:28.367Z,0
2016-10-19T00:17:28.344Z,0
2016-10-19T00:18:28.739Z,0
2016-10-19T00:19:28.333Z,0
2016-10-19T00:20:27.992Z,0
2016-10-19T00:21:28.026Z,0
2016-10-19T00:22:27.959Z,0
2016-10-19T00:23:27.943Z,0
2016-10-19T00:24:27.963Z,0
2016-10-19T00:25:27.912Z,0
2016-10-19T00:26:27.903Z,0
2016-10-19T00:27:27.923Z,0
2016-10-19T00:28:27.874Z,0
2016-10-19T00:29:27.851Z,0
2016-10-19T00:30:27.876Z,0
2016-10-19T00:31:27.823Z,0
2016-10-19T00:32:27.803Z,0
2016-10-19T00:33:28.453Z,0
2016-10-19T00:34:27.766Z,0
2016-10-19T00:35:28.074Z,0
2016-10-19T00:36:28.051Z,0
2016-10-19T00:37:27.725Z,0
2016-10-19T00:38:27.708Z,0
2016-10-19T00:39:27.699Z,0
2016-10-19T00:40:27.677Z,0
2016-10-19T00:41:27.663Z,0
2016-10-19T00:42:27.699Z,0
2016-10-19T00:43:27.624Z,0
2016-10-19T00:44:27.622Z,0
2016-10-19T00:45:27.946Z,0
2016-10-19T00:46:27.905Z,0
2016-10-19T00:47:27.891Z,0
2016-10-19T00:48:27.550Z,0
2016-10-19T00:49:27.540Z,0
2016-10-19T00:50:27.517Z,0
2016-10-19T00:51:27.509Z,0
2016-10-19T00:52:27.807Z,0
2016-10-19T00:53:27.472Z,0
2016-10-19T00:54:27.456Z,0
2016-10-19T00:55:27.438Z,0
2016-10-19T00:56:27.745Z,0
2016-10-19T00:57:27.419Z,0
2016-10-19T00:58:27.717Z,0
2016-10-19T00:59:27.379Z,0
2016-10-19T01:00:27.357Z,0
2016-10-19T01:01:27.672Z,0
2016-10-19T01:02:27.335Z,0
2016-10-19T01:03:27.672Z,0
2016-10-19T01:04:27.609Z,0
2016-10-19T01:05:27.284Z,0
2016-10-19T01:06:27.600Z,0
2016-10-19T01:07:27.572Z,0
2016-10-19T01:08:27.878Z,0
2016-10-19T01:09:27.571Z,0
2016-10-19T01:10:27.211Z,0
2016-10-19T01:11:27.827Z,0
2016-10-19T01:12:27.849Z,0
2016-10-19T01:13:27.473Z,0
2016-10-19T01:14:27.152Z,0
2016-10-19T01:15:27.138Z,0
2016-10-19T01:16:27.121Z,0
2016-10-19T01:17:27.733Z,0
2016-10-19T01:18:27.080Z,0
2016-10-19T01:19:27.067Z,0
2016-10-19T01:20:27.260Z,0
2016-10-19T01:21:27.035Z,0
2016-10-19T01:22:27.064Z,0
2016-10-19T01:23:27.003Z,0
2016-10-19T01:24:26.985Z,0
2016-10-19T01:25:26.983Z,0
2016-10-19T01:26:27.278Z,0
2016-10-19T01:27:26.951Z,0
2016-10-19T01:28:26.935Z,0
2016-10-19T01:29:27.270Z,0
2016-10-19T01:30:26.894Z,0
2016-10-19T01:31:27.189Z,0
2016-10-19T01:32:26.859Z,0
2016-10-19T01:33:27.165Z,0
2016-10-19T01:34:26.823Z,0
2016-10-19T01:35:27.131Z,0
2016-10-19T01:36:27.110Z,0
2016-10-19T01:37:26.775Z,0
2016-10-19T01:38:26.762Z,0
2016-10-19T01:39:27.065Z,0
2016-10-19T01:40:27.363Z,0
2016-10-19T01:41:26.719Z,0
2016-10-19T01:42:26.698Z,0
2016-10-19T01:43:26.686Z,0
2016-10-19T01:44:26.666Z,0
2016-10-19T01:45:26.658Z,0
2016-10-19T01:46:27.266Z,0
2016-10-19T01:47:26.619Z,0
2016-10-19T01:48:26.609Z,0
2016-10-19T01:49:26.910Z,0
2016-10-19T01:50:26.575Z,0
2016-10-19T01:51:26.561Z,0
2016-10-19T01:52:26.865Z,0
2016-10-19T01:53:26.840Z,0
2016-10-19T01:54:26.510Z,0
2016-10-19T01:55:26.492Z,0
2016-10-19T01:56:26.481Z,0
2016-10-19T01:57:27.129Z,0
2016-10-19T01:58:26.786Z,0
2016-10-19T01:59:26.741Z,0
2016-10-19T02:00:26.723Z,0
2016-10-19T02:01:27.019Z,0
2016-10-19T02:02:26.407Z,0
2016-10-19T02:03:26.365Z,0
2016-10-19T02:04:26.687Z,0
2016-10-19T02:05:26.642Z,0
2016-10-19T02:06:26.682Z,0
2016-10-19T02:07:26.296Z,0
2016-10-19T02:08:26.638Z,0
2016-10-19T02:09:26.258Z,0
2016-10-19T02:10:26.247Z,0
2016-10-19T02:11:26.231Z,0
2016-10-19T02:12:26.211Z,0
2016-10-19T02:13:26.511Z,0
2016-10-19T02:14:26.178Z,0
2016-10-19T02:15:26.175Z,0
2016-10-19T02:16:26.148Z,0
2016-10-19T02:17:26.126Z,0
2016-10-19T02:18:26.121Z,0
2016-10-19T02:19:26.094Z,0
2016-10-19T02:20:26.082Z,0
2016-10-19T02:21:26.072Z,0
2016-10-19T02:22:26.358Z,0
2016-10-19T02:23:26.037Z,0
2016-10-19T02:24:26.022Z,0
2016-10-19T02:25:26.318Z,0
2016-10-19T02:26:25.986Z,0
2016-10-19T02:27:26.286Z,0
2016-10-19T02:28:25.948Z,0
2016-10-19T02:29:26.249Z,0
2016-10-19T02:30:25.918Z,0
2016-10-19T02:31:26.564Z,0
2016-10-19T02:32:26.211Z,0
2016-10-19T02:33:25.912Z,0
2016-10-19T02:34:25.846Z,0
2016-10-19T02:35:26.470Z,0
2016-10-19T02:36:25.810Z,0
2016-10-19T02:37:25.801Z,0
2016-10-19T02:38:25.791Z,0
2016-10-19T02:39:26.109Z,0
2016-10-19T02:40:25.748Z,0
2016-10-19T02:41:25.731Z,0
2016-10-19T02:42:25.730Z,0
2016-10-19T02:43:26.040Z,0
2016-10-19T02:44:25.722Z,0
2016-10-19T02:45:25.999Z,0
2016-10-19T02:46:25.710Z,0
2016-10-19T02:47:25.945Z,0
2016-10-19T02:48:25.928Z,0
2016-10-19T02:49:25.972Z,0
2016-10-19T02:50:25.583Z,0
2016-10-19T02:51:25.566Z,0
2016-10-19T02:52:26.172Z,0
2016-10-19T02:53:25.530Z,0
2016-10-19T02:54:25.830Z,0
2016-10-19T02:55:25.494Z,0
2016-10-19T02:56:25.486Z,0
2016-10-19T02:57:25.488Z,0
2016-10-19T02:58:25.445Z,0
2016-10-19T02:59:25.744Z,0
2016-10-19T03:00:25.424Z,0
2016-10-19T03:01:25.719Z,0
2016-10-19T03:02:25.388Z,0
2016-10-19T03:03:25.420Z,0
2016-10-19T03:04:25.661Z,0
2016-10-19T03:05:25.327Z,0
2016-10-19T03:06:25.314Z,0
2016-10-19T03:07:25.666Z,0
2016-10-19T03:08:25.596Z,0
2016-10-19T03:09:25.612Z,0
2016-10-19T03:10:25.293Z,0
2016-10-19T03:11:25.231Z,0
2016-10-19T03:12:25.526Z,0
2016-10-19T03:13:25.202Z,0
2016-10-19T03:14:25.493Z,0
2016-10-19T03:15:26.102Z,0
2016-10-19T03:16:25.490Z,0
2016-10-19T03:17:25.129Z,0
2016-10-19T03:18:25.153Z,0
2016-10-19T03:19:25.122Z,0
2016-10-19T03:20:25.908Z,0
2016-10-19T03:21:25.101Z,0
2016-10-19T03:22:25.049Z,0
2016-10-19T03:23:25.341Z,0
2016-10-19T03:24:25.642Z,0
2016-10-19T03:25:25.000Z,0
2016-10-19T03:26:24.982Z,0
2016-10-19T03:27:25.269Z,0
2016-10-19T03:28:25.263Z,0
2016-10-19T03:29:25.553Z,0
2016-10-19T03:30:24.941Z,0
2016-10-19T03:31:24.890Z,0
2016-10-19T03:32:25.225Z,0
2016-10-19T03:33:24.888Z,0
2016-10-19T03:34:25.159Z,0
2016-10-19T03:35:24.832Z,0
2016-10-19T03:36:25.129Z,0
2016-10-19T03:37:25.110Z,0
2016-10-19T03:38:24.782Z,0
2016-10-19T03:39:25.075Z,0
2016-10-19T03:40:25.134Z,0
2016-10-19T03:41:24.736Z,0
2016-10-19T03:42:25.342Z,0
2016-10-19T03:43:25.064Z,0
2016-10-19T03:44:25.319Z,0
2016-10-19T03:45:25.018Z,0
2016-10-19T03:46:24.647Z,0
2016-10-19T03:47:24.635Z,0
2016-10-19T03:48:25.238Z,0
2016-10-19T03:49:24.599Z,0
2016-10-19T03:50:24.927Z,0
2016-10-19T03:51:24.563Z,0
2016-10-19T03:52:24.550Z,0
2016-10-19T03:53:24.528Z,0
2016-10-19T03:54:24.509Z,0
2016-10-19T03:55:24.551Z,0
2016-10-19T03:56:24.800Z,0
2016-10-19T03:57:24.463Z,0
2016-10-19T03:58:24.794Z,0
2016-10-19T03:59:24.439Z,0
2016-10-19T04:00:24.443Z,0
2016-10-19T04:01:24.418Z,0
2016-10-19T04:02:24.400Z,0
2016-10-19T04:03:24.367Z,0
2016-10-19T04:04:25.022Z,0
2016-10-19T04:05:24.377Z,0
2016-10-19T04:06:24.383Z,0
2016-10-19T04:07:24.618Z,0
2016-10-19T04:08:24.282Z,0
2016-10-19T04:09:24.280Z,0
2016-10-19T04:10:24.285Z,0
2016-10-19T04:11:24.233Z,0
2016-10-19T04:12:24.211Z,0
2016-10-19T04:13:24.518Z,0
2016-10-19T04:14:24.532Z,0
2016-10-19T04:15:24.489Z,0
2016-10-19T04:16:24.155Z,0
2016-10-19T04:17:24.133Z,0
2016-10-19T04:18:24.119Z,0
2016-10-19T04:19:24.413Z,0
2016-10-19T04:20:24.408Z,0
2016-10-19T04:21:24.382Z,0
2016-10-19T04:22:24.388Z,0
2016-10-19T04:23:24.035Z,0
2016-10-19T04:24:24.020Z,0
2016-10-19T04:25:24.001Z,0
2016-10-19T04:26:23.986Z,0
2016-10-19T04:27:23.979Z,0
2016-10-19T04:28:24.288Z,0
2016-10-19T04:29:23.949Z,0
2016-10-19T04:30:23.924Z,0
2016-10-19T04:31:23.905Z,0
2016-10-19T04:32:23.883Z,0
2016-10-19T04:33:24.180Z,0
2016-10-19T04:34:24.172Z,0
2016-10-19T04:35:23.829Z,0
2016-10-19T04:36:23.822Z,0
2016-10-19T04:37:24.120Z,0
2016-10-19T04:38:24.092Z,0
2016-10-19T04:39:24.083Z,0
2016-10-19T04:40:23.750Z,0
2016-10-19T04:41:24.046Z,0
2016-10-19T04:42:24.398Z,0
2016-10-19T04:43:24.156Z,0
2016-10-19T04:44:24.045Z,0
2016-10-19T04:45:23.677Z,0
2016-10-19T04:46:23.968Z,0
2016-10-19T04:47:23.641Z,0
2016-10-19T04:48:23.932Z,0
2016-10-19T04:49:23.603Z,0
2016-10-19T04:50:23.583Z,0
2016-10-19T04:51:24.198Z,0
2016-10-19T04:52:23.546Z,0
2016-10-19T04:53:23.536Z,0
2016-10-19T04:54:23.519Z,0
2016-10-19T04:55:23.811Z,0
2016-10-19T04:56:24.108Z,0
2016-10-19T04:57:23.505Z,0
2016-10-19T04:58:24.127Z,0
2016-10-19T04:59:23.435Z,0
2016-10-19T05:00:23.418Z,0
2016-10-19T05:01:23.723Z,0
2016-10-19T05:02:23.385Z,0
2016-10-19T05:03:24.168Z,0
2016-10-19T05:04:23.697Z,0
2016-10-19T05:05:24.013Z,0
2016-10-19T05:06:23.318Z,0
2016-10-19T05:07:23.310Z,0
2016-10-19T05:08:23.283Z,0
2016-10-19T05:09:23.359Z,0
2016-10-19T05:10:23.873Z,0
2016-10-19T05:11:23.237Z,0
2016-10-19T05:12:23.526Z,0
2016-10-19T05:13:23.516Z,0
2016-10-19T05:14:23.495Z,0
2016-10-19T05:15:23.479Z,0
2016-10-19T05:16:23.144Z,0
2016-10-19T05:17:23.135Z,0
2016-10-19T05:18:23.110Z,0
2016-10-19T05:19:23.099Z,0
2016-10-19T05:20:23.276Z,0
2016-10-19T05:21:23.067Z,0
2016-10-19T05:22:23.367Z,0
2016-10-19T05:23:23.034Z,0
2016-10-19T05:24:23.023Z,0
2016-10-19T05:25:23.006Z,0
2016-10-19T05:26:22.989Z,0
2016-10-19T05:27:24.287Z,0
2016-10-19T05:28:22.969Z,0
2016-10-19T05:29:23.036Z,0
2016-10-19T05:30:23.544Z,0
2016-10-19T05:31:22.909Z,0
2016-10-19T05:32:22.886Z,0
2016-10-19T05:33:22.911Z,0
2016-10-19T05:34:23.159Z,0
2016-10-19T05:35:22.920Z,0
2016-10-19T05:36:22.812Z,0
2016-10-19T05:37:22.800Z,0
2016-10-19T05:38:22.818Z,0
2016-10-19T05:39:22.775Z,0
2016-10-19T05:40:22.749Z,0
2016-10-19T05:41:22.998Z,0
2016-10-19T05:42:23.040Z,0
2016-10-19T05:43:23.018Z,0
2016-10-19T05:44:22.694Z,0
2016-10-19T05:45:23.003Z,0
2016-10-19T05:46:23.279Z,0
2016-10-19T05:47:22.682Z,0
2016-10-19T05:48:22.930Z,0
2016-10-19T05:49:22.601Z,0
2016-10-19T05:50:22.584Z,0
2016-10-19T05:51:23.432Z,0
2016-10-19T05:52:22.911Z,0
2016-10-19T05:53:22.861Z,0
2016-10-19T05:54:22.825Z,0
2016-10-19T05:55:22.816Z,0
2016-10-19T05:56:23.108Z,0
2016-10-19T05:57:22.466Z,0
2016-10-19T05:58:23.074Z,0
2016-10-19T05:59:22.746Z,0
2016-10-19T06:00:22.738Z,0
2016-10-19T06:01:22.729Z,0
2016-10-19T06:02:22.434Z,0
2016-10-19T06:03:22.678Z,0
2016-10-19T06:04:22.352Z,0
2016-10-19T06:05:22.337Z,0
2016-10-19T06:06:22.636Z,0
2016-10-19T06:07:22.613Z,0
2016-10-19T06:08:22.698Z,0
2016-10-19T06:09:22.280Z,0
2016-10-19T06:10:22.576Z,0
2016-10-19T06:11:22.235Z,0
2016-10-19T06:12:22.536Z,0
2016-10-19T06:13:22.213Z,0
2016-10-19T06:14:22.260Z,0
2016-10-19T06:15:22.482Z,0
2016-10-19T06:16:22.206Z,0
2016-10-19T06:17:22.445Z,0
2016-10-19T06:18:22.440Z,0
2016-10-19T06:19:22.107Z,5
2016-10-19T06:20:22.408Z,0
2016-10-19T06:21:22.070Z,0
2016-10-19T06:22:22.376Z,0
2016-10-19T06:23:22.034Z,5
2016-10-19T06:24:22.480Z,5
2016-10-19T06:25:22.017Z,5
2016-10-19T06:26:22.310Z,5
2016-10-19T06:27:21.972Z,5
2016-10-19T06:28:21.969Z,5
2016-10-19T06:29:22.612Z,10
2016-10-19T06:30:21.924Z,5
2016-10-19T06:31:21.908Z,10
2016-10-19T06:32:22.231Z,10
2016-10-19T06:33:21.879Z,10
2016-10-19T06:34:22.187Z,10
2016-10-19T06:35:21.838Z,10
2016-10-19T06:36:21.829Z,10
2016-10-19T06:37:22.133Z,10
2016-10-19T06:38:22.488Z,5
2016-10-19T06:39:21.835Z,10
2016-10-19T06:40:22.086Z,10
2016-10-19T06:41:22.384Z,10
2016-10-19T06:42:21.725Z,10
2016-10-19T06:43:22.019Z,5
2016-10-19T06:44:21.696Z,5
2016-10-19T06:45:21.684Z,5
2016-10-19T06:46:21.709Z,10
2016-10-19T06:47:22.277Z,10
2016-10-19T06:48:21.628Z,10
2016-10-19T06:49:21.638Z,10
2016-10-19T06:50:21.958Z,10
2016-10-19T06:51:21.575Z,10
2016-10-19T06:52:21.889Z,10
2016-10-19T06:53:21.544Z,10
2016-10-19T06:54:21.838Z,10
2016-10-19T06:55:22.172Z,10
2016-10-19T06:56:21.812Z,5
2016-10-19T06:57:22.419Z,5
2016-10-19T06:58:21.505Z,5
2016-10-19T06:59:21.760Z,5
2016-10-19T07:00:21.801Z,5
2016-10-19T07:01:21.734Z,5
2016-10-19T07:02:21.710Z,5
2016-10-19T07:03:21.407Z,5
2016-10-19T07:04:21.679Z,5
2016-10-19T07:05:21.348Z,5
2016-10-19T07:06:21.959Z,5
2016-10-19T07:07:21.674Z,5
2016-10-19T07:08:21.316Z,5
2016-10-19T07:09:21.608Z,5
2016-10-19T07:10:21.583Z,5
2016-10-19T07:11:21.576Z,5
2016-10-19T07:12:21.546Z,5
2016-10-19T07:13:21.529Z,5
2016-10-19T07:14:21.195Z,5
2016-10-19T07:15:21.180Z,5
2016-10-19T07:16:21.168Z,5
2016-10-19T07:17:21.537Z,5
2016-10-19T07:18:21.492Z,5
2016-10-19T07:19:22.143Z,5
2016-10-19T07:20:22.041Z,10
2016-10-19T07:21:21.399Z,10
2016-10-19T07:22:21.067Z,10
2016-10-19T07:23:21.054Z,10
2016-10-19T07:24:21.358Z,10
2016-10-19T07:25:21.020Z,10
2016-10-19T07:26:21.363Z,10
2016-10-19T07:27:21.611Z,10
2016-10-19T07:28:20.964Z,15
2016-10-19T07:29:20.962Z,10
2016-10-19T07:30:20.946Z,10
2016-10-19T07:31:20.925Z,10
2016-10-19T07:32:21.223Z,10
2016-10-19T07:33:20.887Z,10
2016-10-19T07:34:20.866Z,10
2016-10-19T07:35:20.846Z,10
2016-10-19T07:36:20.836Z,10
2016-10-19T07:37:21.452Z,10
2016-10-19T07:38:21.744Z,10
2016-10-19T07:39:21.156Z,5
2016-10-19T07:40:21.152Z,5
2016-10-19T07:41:20.751Z,5
2016-10-19T07:42:21.365Z,5
2016-10-19T07:43:21.034Z,10
2016-10-19T07:44:21.025Z,5
2016-10-19T07:45:20.691Z,5
2016-10-19T07:46:21.026Z,10
2016-10-19T07:47:20.653Z,10
2016-10-19T07:48:20.636Z,10
2016-10-19T07:49:20.622Z,10
2016-10-19T07:50:20.604Z,5
2016-10-19T07:51:20.926Z,5
2016-10-19T07:52:20.887Z,5
2016-10-19T07:53:20.558Z,5
2016-10-19T07:54:20.848Z,5
2016-10-19T07:55:20.843Z,5
2016-10-19T07:56:20.510Z,5
2016-10-19T07:57:20.506Z,5
2016-10-19T07:58:20.476Z,5
2016-10-19T07:59:20.454Z,5
2016-10-19T08:00:21.816Z,5
2016-10-19T08:01:20.438Z,5
2016-10-19T08:02:20.410Z,5
2016-10-19T08:03:20.390Z,10
2016-10-19T08:04:20.682Z,10
2016-10-19T08:05:20.675Z,15
2016-10-19T08:06:20.657Z,10
2016-10-19T08:07:20.647Z,10
2016-10-19T08:08:20.312Z,15
2016-10-19T08:09:20.290Z,25
2016-10-19T08:10:20.272Z,30
2016-10-19T08:11:20.256Z,30
2016-10-19T08:12:20.233Z,30
2016-10-19T08:13:20.557Z,30
2016-10-19T08:14:20.209Z,30
2016-10-19T08:15:20.518Z,30
2016-10-19T08:16:20.166Z,30
2016-10-19T08:17:20.204Z,30
2016-10-19T08:18:20.168Z,30
2016-10-19T08:19:20.118Z,35
2016-10-19T08:20:20.737Z,35
2016-10-19T08:21:20.688Z,35
2016-10-19T08:22:20.094Z,40
2016-10-19T08:23:20.049Z,35
2016-10-19T08:24:20.044Z,40
2016-10-19T08:25:20.022Z,30
2016-10-19T08:26:20.623Z,30
2016-10-19T08:27:20.033Z,20
2016-10-19T08:28:20.300Z,25
2016-10-19T08:29:19.953Z,30
2016-10-19T08:30:20.277Z,30
2016-10-19T08:31:19.927Z,35
2016-10-19T08:32:19.909Z,40
2016-10-19T08:33:19.891Z,45
2016-10-19T08:34:19.875Z,50
2016-10-19T08:35:19.856Z,45
2016-10-19T08:36:19.841Z,35
2016-10-19T08:37:19.827Z,40
2016-10-19T08:38:19.802Z,40
2016-10-19T08:39:20.100Z,40
2016-10-19T08:40:19.793Z,35
2016-10-19T08:41:19.767Z,40
2016-10-19T08:42:20.093Z,45
2016-10-19T08:43:19.761Z,45
2016-10-19T08:44:19.723Z,50
2016-10-19T08:45:19.702Z,45
2016-10-19T08:46:20.005Z,50
2016-10-19T08:47:19.989Z,40
2016-10-19T08:48:19.680Z,40
2016-10-19T08:49:20.008Z,35
2016-10-19T08:50:19.968Z,35
2016-10-19T08:51:19.634Z,50
2016-10-19T08:52:19.576Z,55
2016-10-19T08:53:19.563Z,70
2016-10-19T08:54:19.541Z,70
2016-10-19T08:55:19.526Z,90
2016-10-19T08:56:19.509Z,100
2016-10-19T08:57:19.496Z,95
2016-10-19T08:58:20.131Z,100
2016-10-19T08:59:20.404Z,65
2016-10-19T09:00:19.826Z,45
2016-10-19T09:01:19.424Z,40
2016-10-19T09:02:19.736Z,35
2016-10-19T09:03:19.710Z,20
2016-10-19T09:04:19.374Z,20
2016-10-19T09:05:19.711Z,10
2016-10-19T09:06:19.358Z,10
2016-10-19T09:07:19.334Z,10
2016-10-19T09:08:19.356Z,10
2016-10-19T09:09:19.302Z,15
2016-10-19T09:10:19.278Z,15
2016-10-19T09:11:19.575Z,10
2016-10-19T09:12:19.250Z,10
2016-10-19T09:13:19.239Z,15
2016-10-19T09:14:19.554Z,15
2016-10-19T09:15:19.510Z,15
2016-10-19T09:16:19.552Z,15
2016-10-19T09:17:19.170Z,15
2016-10-19T09:18:19.471Z,15
2016-10-19T09:19:19.137Z,10
2016-10-19T09:20:20.346Z,10
2016-10-19T09:21:19.099Z,10
2016-10-19T09:22:19.085Z,10
2016-10-19T09:23:19.064Z,15
2016-10-19T09:24:19.063Z,10
2016-10-19T09:25:19.076Z,10
2016-10-19T09:26:19.026Z,15
2016-10-19T09:27:19.350Z,20
2016-10-19T09:28:19.301Z,25
2016-10-19T09:29:18.987Z,25
2016-10-19T09:30:18.956Z,25
2016-10-19T09:31:18.939Z,25
2016-10-19T09:32:19.251Z,20
2016-10-19T09:33:19.262Z,20
2016-10-19T09:34:18.917Z,20
2016-10-19T09:35:18.868Z,15
2016-10-19T09:36:19.177Z,15
2016-10-19T09:37:18.857Z,20
2016-10-19T09:38:18.832Z,15
2016-10-19T09:39:18.805Z,15
2016-10-19T09:40:19.097Z,25
2016-10-19T09:41:18.778Z,35
2016-10-19T09:42:18.756Z,40
2016-10-19T09:43:18.745Z,20
2016-10-19T09:44:18.720Z,20
2016-10-19T09:45:19.335Z,20
2016-10-19T09:46:19.006Z,20
2016-10-19T09:47:18.673Z,20
2016-10-19T09:48:18.655Z,20
2016-10-19T09:49:18.661Z,25
2016-10-19T09:50:18.939Z,30
2016-10-19T09:51:18.606Z,35
2016-10-19T09:52:18.913Z,50
2016-10-19T09:53:19.208Z,35
2016-10-19T09:54:18.571Z,25
2016-10-19T09:55:18.898Z,25
2016-10-19T09:56:18.528Z,25
2016-10-19T09:57:18.835Z,35
2016-10-19T09:58:18.503Z,35
2016-10-19T09:59:18.485Z,40
2016-10-19T10:00:18.782Z,40
2016-10-19T10:01:18.464Z,35
2016-10-19T10:02:18.440Z,35
2016-10-19T10:03:18.743Z,30
2016-10-19T10:04:19.391Z,25
2016-10-19T10:05:18.388Z,25
2016-10-19T10:06:18.685Z,30
2016-10-19T10:07:19.298Z,30
2016-10-19T10:08:18.351Z,35
2016-10-19T10:09:18.634Z,25
2016-10-19T10:10:18.323Z,40
2016-10-19T10:11:18.299Z,35
2016-10-19T10:12:18.306Z,35
2016-10-19T10:13:18.315Z,30
2016-10-19T10:14:18.253Z,35
2016-10-19T10:15:18.576Z,50
2016-10-19T10:16:18.527Z,60
2016-10-19T10:17:18.512Z,65
2016-10-19T10:18:18.209Z,60
2016-10-19T10:19:18.170Z,75
2016-10-19T10:20:18.464Z,50
2016-10-19T10:21:18.135Z,35
2016-10-19T10:22:18.159Z,50
2016-10-19T10:23:18.147Z,35
2016-10-19T10:24:18.107Z,30
2016-10-19T10:25:18.388Z,25
2016-10-19T10:26:18.058Z,30
2016-10-19T10:27:18.042Z,20
2016-10-19T10:28:18.025Z,10
2016-10-19T10:29:18.011Z,10
2016-10-19T10:30:17.997Z,10
2016-10-19T10:31:17.971Z,10
2016-10-19T10:32:18.290Z,15
2016-10-19T10:33:18.261Z,10
2016-10-19T10:34:17.956Z,10
2016-10-19T10:35:18.548Z,15
2016-10-19T10:36:18.207Z,20
2016-10-19T10:37:18.244Z,25
2016-10-19T10:38:17.870Z,25
2016-10-19T10:39:18.160Z,30
2016-10-19T10:40:18.158Z,60
2016-10-19T10:41:17.821Z,65
2016-10-19T10:42:18.120Z,55
2016-10-19T10:43:17.782Z,75
2016-10-19T10:44:18.786Z,65
2016-10-19T10:45:18.080Z,75
2016-10-19T10:46:18.061Z,110
2016-10-19T10:47:17.742Z,115
2016-10-19T10:48:17.714Z,100
2016-10-19T10:49:17.698Z,95
2016-10-19T10:50:17.998Z,75
2016-10-19T10:51:17.698Z,140
2016-10-19T10:52:17.663Z,90
2016-10-19T10:53:18.272Z,60
2016-10-19T10:54:17.619Z,60
2016-10-19T10:55:17.600Z,40
2016-10-19T10:56:17.612Z,45
2016-10-19T10:57:17.575Z,65
2016-10-19T10:58:17.870Z,75
2016-10-19T10:59:17.538Z,155
2016-10-19T11:00:17.843Z,185
2016-10-19T11:01:17.866Z,185
2016-10-19T11:02:17.498Z,365
2016-10-19T11:03:17.800Z,255
2016-10-19T11:04:17.464Z,180
2016-10-19T11:05:17.764Z,140
2016-10-19T11:06:17.439Z,205
2016-10-19T11:07:17.422Z,245
2016-10-19T11:08:17.410Z,175
2016-10-19T11:09:17.391Z,140
2016-10-19T11:10:17.377Z,155
2016-10-19T11:11:17.403Z,100
2016-10-19T11:12:17.353Z,95
2016-10-19T11:13:17.335Z,125
2016-10-19T11:14:17.626Z,195
2016-10-19T11:15:17.307Z,155
2016-10-19T11:16:17.606Z,140
2016-10-19T11:17:17.274Z,130
2016-10-19T11:18:17.256Z,95
2016-10-19T11:19:17.244Z,125
2016-10-19T11:20:17.550Z,185
2016-10-19T11:21:17.735Z,170
2016-10-19T11:22:17.202Z,110
2016-10-19T11:23:17.871Z,120
2016-10-19T11:24:17.171Z,125
2016-10-19T11:25:17.776Z,90
2016-10-19T11:26:17.153Z,75
2016-10-19T11:27:17.443Z,60
2016-10-19T11:28:17.822Z,55
2016-10-19T11:29:17.107Z,65
2016-10-19T11:30:17.406Z,60
2016-10-19T11:31:17.468Z,80
2016-10-19T11:32:17.073Z,70
2016-10-19T11:33:17.043Z,80
2016-10-19T11:34:17.021Z,105
2016-10-19T11:35:17.327Z,100
2016-10-19T11:36:17.023Z,140
2016-10-19T11:37:17.004Z,100
2016-10-19T11:38:17.281Z,80
2016-10-19T11:39:16.948Z,130
2016-10-19T11:40:16.941Z,130
2016-10-19T11:41:17.268Z,160
2016-10-19T11:42:16.915Z,120
2016-10-19T11:43:16.898Z,125
2016-10-19T11:44:16.931Z,140
2016-10-19T11:45:16.873Z,110
2016-10-19T11:46:16.848Z,100
2016-10-19T11:47:17.174Z,85
2016-10-19T11:48:16.818Z,110
2016-10-19T11:49:16.814Z,65
2016-10-19T11:50:16.789Z,65
2016-10-19T11:51:16.778Z,95
2016-10-19T11:52:16.761Z,100
2016-10-19T11:53:17.378Z,95
2016-10-19T11:54:17.053Z,175
2016-10-19T11:55:17.054Z,170
2016-10-19T11:56:17.379Z,145
2016-10-19T11:57:17.007Z,155
2016-10-19T11:58:16.673Z,120
2016-10-19T11:59:16.655Z,100
2016-10-19T12:00:16.644Z,60
2016-10-19T12:01:16.939Z,80
2016-10-19T12:02:16.610Z,80
2016-10-19T12:03:16.596Z,70
2016-10-19T12:04:16.586Z,65
2016-10-19T12:05:16.577Z,55
2016-10-19T12:06:16.589Z,60
2016-10-19T12:07:16.540Z,55
2016-10-19T12:08:16.526Z,55
2016-10-19T12:09:16.515Z,40
2016-10-19T12:10:16.856Z,50
2016-10-19T12:11:16.795Z,55
2016-10-19T12:12:16.476Z,35
2016-10-19T12:13:16.796Z,45
2016-10-19T12:14:16.442Z,80
2016-10-19T12:15:16.429Z,110
2016-10-19T12:16:16.720Z,125
2016-10-19T12:17:16.398Z,175
2016-10-19T12:18:16.379Z,190
2016-10-19T12:19:16.364Z,225
2016-10-19T12:20:16.397Z,330
2016-10-19T12:21:16.336Z,270
2016-10-19T12:22:16.328Z,310
2016-10-19T12:23:16.616Z,510
2016-10-19T12:24:16.305Z,440
2016-10-19T12:25:16.961Z,220
2016-10-19T12:26:16.891Z,185
2016-10-19T12:27:16.562Z,195
2016-10-19T12:28:16.280Z,205
2016-10-19T12:29:16.874Z,140
2016-10-19T12:30:16.264Z,150
2016-10-19T12:31:16.239Z,195
2016-10-19T12:32:16.206Z,215
2016-10-19T12:33:16.255Z,205
2016-10-19T12:34:16.511Z,195
2016-10-19T12:35:16.453Z,195
2016-10-19T12:36:16.448Z,195
2016-10-19T12:37:16.152Z,190
2016-10-19T12:38:16.100Z,165
2016-10-19T12:39:16.087Z,180
2016-10-19T12:40:16.396Z,180
2016-10-19T12:41:16.066Z,150
2016-10-19T12:42:16.050Z,140
2016-10-19T12:43:16.048Z,150
2016-10-19T12:44:16.023Z,115
2016-10-19T12:45:16.007Z,100
2016-10-19T12:46:16.322Z,90
2016-10-19T12:47:16.610Z,50
2016-10-19T12:48:16.623Z,45
2016-10-19T12:49:15.977Z,45
2016-10-19T12:50:16.269Z,35
2016-10-19T12:51:16.240Z,35
2016-10-19T12:52:15.917Z,45
2016-10-19T12:53:16.215Z,75
2016-10-19T12:54:15.882Z,105
2016-10-19T12:55:16.189Z,70
2016-10-19T12:56:15.857Z,45
2016-10-19T12:57:15.852Z,70
2016-10-19T12:58:15.850Z,55
2016-10-19T12:59:16.783Z,40
2016-10-19T13:00:16.140Z,30
2016-10-19T13:01:16.145Z,25
2016-10-19T13:02:15.771Z,25
2016-10-19T13:03:16.130Z,25
2016-10-19T13:04:16.707Z,30
2016-10-19T13:05:16.369Z,30
2016-10-19T13:06:16.041Z,25
2016-10-19T13:07:15.714Z,20
2016-10-19T13:08:15.698Z,20
2016-10-19T13:09:15.682Z,20
2016-10-19T13:10:15.665Z,20
2016-10-19T13:11:15.975Z,25
2016-10-19T13:12:15.949Z,25
2016-10-19T13:13:16.320Z,25
2016-10-19T13:14:15.600Z,20
2016-10-19T13:15:15.582Z,15
2016-10-19T13:16:15.887Z,15
2016-10-19T13:17:15.880Z,20
2016-10-19T13:18:15.580Z,25
2016-10-19T13:19:15.527Z,30
2016-10-19T13:20:15.505Z,30
2016-10-19T13:21:15.710Z,30
2016-10-19T13:22:15.787Z,30
2016-10-19T13:23:15.512Z,30
2016-10-19T13:24:15.767Z,35
2016-10-19T13:25:15.791Z,45
2016-10-19T13:26:15.413Z,35
2016-10-19T13:27:15.416Z,30
2016-10-19T13:28:15.389Z,25
2016-10-19T13:29:15.375Z,20
2016-10-19T13:30:15.403Z,20
2016-10-19T13:31:15.343Z,20
2016-10-19T13:32:15.324Z,20
2016-10-19T13:33:15.309Z,20
2016-10-19T13:34:15.605Z,15
2016-10-19T13:35:15.286Z,15
2016-10-19T13:36:15.260Z,20
2016-10-19T13:37:15.562Z,35
2016-10-19T13:38:15.232Z,55
2016-10-19T13:39:15.224Z,50
2016-10-19T13:40:15.523Z,60
2016-10-19T13:41:15.192Z,55
2016-10-19T13:42:15.481Z,60
2016-10-19T13:43:15.204Z,50
2016-10-19T13:44:15.154Z,55
2016-10-19T13:45:15.126Z,50
2016-10-19T13:46:15.420Z,55
2016-10-19T13:47:15.722Z,55
2016-10-19T13:48:15.082Z,50
2016-10-19T13:49:15.403Z,35
2016-10-19T13:50:15.677Z,30
2016-10-19T13:51:15.350Z,40
2016-10-19T13:52:15.027Z,55
2016-10-19T13:53:15.315Z,45
2016-10-19T13:54:14.989Z,45
2016-10-19T13:55:15.287Z,40
2016-10-19T13:56:15.268Z,55
2016-10-19T13:57:15.570Z,40
2016-10-19T13:58:14.934Z,25
2016-10-19T13:59:15.223Z,25
2016-10-19T14:00:14.947Z,25
2016-10-19T14:01:14.875Z,25
2016-10-19T14:02:15.179Z,25
2016-10-19T14:03:14.870Z,45
2016-10-19T14:04:14.837Z,50
2016-10-19T14:05:14.815Z,60
2016-10-19T14:06:14.792Z,50
2016-10-19T14:07:14.789Z,50
2016-10-19T14:08:14.769Z,50
2016-10-19T14:09:15.735Z,50
2016-10-19T14:10:15.373Z,60
2016-10-19T14:11:15.034Z,60
2016-10-19T14:12:15.351Z,80
2016-10-19T14:13:15.010Z,95
2016-10-19T14:14:15.016Z,120
2016-10-19T14:15:14.968Z,130
2016-10-19T14:16:14.957Z,130
2016-10-19T14:17:14.626Z,145
2016-10-19T14:18:14.626Z,135
2016-10-19T14:19:14.916Z,150
2016-10-19T14:20:14.578Z,130
2016-10-19T14:21:14.574Z,110
2016-10-19T14:22:14.865Z,130
2016-10-19T14:23:14.541Z,115
2016-10-19T14:24:14.835Z,105
2016-10-19T14:25:15.450Z,70
2016-10-19T14:26:15.123Z,65
2016-10-19T14:27:14.470Z,50